Latest Weather Observations for Christmas Creek

IDW60801

Issued at 5:35 pm WST Saturday 29 November 2014 (issued every 30 minutes, with the page automatically refreshed every 10 minutes)

About weather observations | Map of weather stations | Latest weather observations for WA | Other Formats
Station Details ID: 505049 Name: CHRISTMAS CREEK Lat: -22.36 Lon: 119.65 Height: 437.21 m
Data from the previous 72 hours. | See also: Recent months for locations in Western Australia
Date/Time
WST
Temp
°C
App
Temp
°C
Dew
Point
Rel
Hum
%
Delta-T
°C
Wind Press
QNH
hPa
Press
MSL
hPa
Rain
since 9 am
mm
Dir
 
Spd
km/h
Gust
km/h
Spd
kts
Gust
kts
29/05:30pm 38.4 35.1 4.6 12 18.7 NW 11 17 6 9 1006.7 1003.5 0.0
29/05:00pm 38.2 34.6 4.8 13 18.5 WNW 13 24 7 13 1006.7 1003.5 0.0
29/04:30pm 38.3 34.9 5.9 13 18.2 WNW 13 20 7 11 1006.7 1003.5 0.0
29/04:00pm 38.6 35.2 6.0 13 18.4 NNW 13 20 7 11 1006.9 1003.7 0.0
29/03:30pm 38.3 35.0 6.2 14 18.1 WNW 13 22 7 12 1007.3 1004.1 0.0
29/03:00pm 37.4 34.7 7.5 16 17.2 WNW 11 28 6 15 1007.6 1004.4 0.0
29/02:30pm 37.5 34.9 7.7 16 17.1 WSW 11 22 6 12 1008.2 1005.1 0.0
29/02:00pm 37.7 34.7 7.6 16 17.3 NW 13 24 7 13 1008.7 1005.5 0.0
29/01:30pm 37.1 34.9 7.8 16 16.8 W 9 24 5 13 1009.1 1005.9 0.0
29/01:00pm 36.2 33.6 6.3 16 16.8 WNW 9 22 5 12 1009.4 1006.2 0.0
29/12:30pm 35.5 33.3 6.0 16 16.4 NW 7 15 4 8 1009.7 1006.5 0.0
29/12:00pm 35.9 33.5 6.8 16 16.4 S 9 19 5 10 1010.1 1007.0 0.0
29/11:30am 34.4 31.9 6.5 17 15.5 S 9 20 5 11 1010.4 1007.3 0.0
29/11:00am 34.5 32.5 7.0 18 15.4 SE 7 17 4 9 1010.7 1007.6 0.0
29/10:30am 33.5 31.5 8.8 22 14.2 S 9 22 5 12 1011.3 1008.1 0.0
29/10:00am 33.4 30.7 10.4 24 13.5 SSE 15 26 8 14 1011.5 1008.3 0.0
29/09:30am 31.8 29.0 10.0 26 12.7 SE 15 24 8 13 1011.6 1008.4 0.0
29/09:00am 30.6 27.8 11.2 30 11.4 SE 17 24 9 13 1011.7 1008.5 3.8
29/08:30am 29.7 27.0 12.9 35 10.1 SSE 19 26 10 14 1011.6 1008.4 3.8
29/08:00am 28.4 26.9 15.2 44 8.2 SSE 17 24 9 13 1011.6 1008.4 3.8
29/07:30am 27.8 27.0 15.2 46 7.8 S 13 19 7 10 1011.5 1008.3 3.8
29/07:00am 25.6 27.9 19.4 68 4.1 S 6 11 3 6 1011.6 1008.4 3.8
29/06:30am 23.1 26.1 19.3 79 2.5 SW 2 6 1 3 1011.5 1008.3 3.8
29/06:00am 22.3 25.0 19.4 83 1.9 WSW 4 7 2 4 1011.2 1008.0 3.8
29/05:30am 21.3 23.4 19.3 88 1.3 W 7 11 4 6 1010.7 1007.6 3.8
29/05:00am 21.6 23.6 19.1 86 1.6 WSW 7 9 4 5 1010.5 1007.4 3.8
29/04:30am 21.7 24.1 18.8 83 1.9 W 4 6 2 3 1010.4 1007.3 3.8
29/04:00am 22.3 24.2 18.9 81 2.2 SW 7 11 4 6 1010.4 1007.3 3.8
29/03:30am 22.3 24.3 19.1 82 2.1 SW 7 11 4 6 1010.5 1007.4 3.8
29/03:00am 22.1 24.4 19.4 85 1.8 WSW 6 9 3 5 1010.5 1007.4 3.8
29/02:30am 22.8 24.8 19.2 80 2.3 W 7 9 4 5 1010.4 1007.3 3.8
29/02:00am 23.3 24.8 19.0 77 2.8 W 9 15 5 8 1010.4 1007.3 3.8
29/01:30am 23.7 25.5 18.8 74 3.2 W 7 11 4 6 1010.6 1007.5 3.8
29/01:00am 24.3 26.0 18.4 69 3.8 SW 7 11 4 6 1010.9 1007.7 3.8
29/12:30am 25.3 26.0 18.0 64 4.7 NNW 11 17 6 9 1011.0 1007.8 3.8
29/12:00am 25.9 24.9 17.9 61 5.1 N 20 28 11 15 1011.2 1008.0 3.8
 
Date/Time
WST
Temp
°C
App
Temp
°C
Dew
Point
Rel
Hum
%
Delta-T
°C
Wind Press
QNH
hPa
Press
MSL
hPa
Rain
since 9 am
mm
Dir
 
Spd
km/h
Gust
km/h
Spd
kts
Gust
kts
28/11:30pm 26.6 25.1 17.7 58 5.7 NNW 22 26 12 14 1011.4 1008.2 3.8
28/11:00pm 23.6 24.7 19.6 78 2.6 N 13 19 7 10 1011.8 1008.6 3.8
28/10:30pm 24.0 20.9 18.9 73 3.3 N 33 46 18 25 1012.1 1008.9 3.8
28/10:00pm 25.3 22.3 17.7 62 4.8 N 30 41 16 22 1012.4 1009.3 3.0
28/09:30pm 25.7 24.5 18.5 64 4.7 N 22 30 12 16 1012.7 1009.6 3.0
28/09:00pm 26.0 24.2 18.8 64 4.7 N 26 32 14 17 1012.3 1009.2 3.0
28/08:30pm 26.3 27.4 18.8 63 4.9 NNW 11 22 6 12 1013.0 1009.9 3.0
28/08:00pm 25.9 25.3 19.7 68 4.1 N 22 33 12 18 1012.3 1009.2 3.0
28/07:59pm 26.0 25.3 19.6 68 4.2 N 22 33 12 18 1012.3 1009.2 3.0
28/07:38pm 24.5 22.1 18.3 68 4.0 WSW 28 59 15 32 1012.8 1009.7 1.4
28/07:36pm 26.4 23.8 17.9 59 5.5 WSW 28 59 15 32 1012.5 1009.4 0.2
28/07:30pm 30.0 28.0 15.5 41 9.1 WSW 20 30 11 16 1012.2 1009.1 0.0
28/07:00pm 29.8 29.3 16.0 43 8.7 N 13 17 7 9 1010.7 1007.6 0.0
28/06:30pm 29.3 29.0 16.4 45 8.2 NE 13 17 7 9 1010.1 1007.0 0.0
28/06:00pm 31.0 28.6 15.3 38 9.9 N 22 37 12 20 1010.1 1007.0 0.0
28/05:30pm 33.1 31.0 12.5 28 12.5 NNE 15 19 8 10 1009.8 1006.6 0.0
28/05:00pm 33.4 31.1 11.6 26 13.1 N 15 20 8 11 1010.0 1006.8 0.0
28/04:30pm 33.7 33.2 13.7 30 12.4 N 9 15 5 8 1009.7 1006.5 0.0
28/04:00pm 34.0 33.3 14.3 30 12.3 W 11 22 6 12 1009.7 1006.5 0.0
28/03:30pm 33.6 30.5 14.4 31 12.0 SW 24 33 13 18 1010.0 1006.8 0.0
28/03:05pm 36.2 32.7 15.5 29 13.2 W 28 61 15 33 1009.5 1006.3 0.0
28/03:00pm 37.4 34.6 15.3 27 14.2 W 24 37 13 20 1009.4 1006.2 0.0
28/02:30pm 36.8 36.5 15.4 28 13.7 W 11 20 6 11 1009.5 1006.3 0.0
28/02:00pm 35.2 34.5 15.3 30 12.7 W 13 24 7 13 1009.6 1006.4 0.0
28/01:30pm 35.4 34.8 15.6 30 12.7 W 13 19 7 10 1010.0 1006.8 0.0
28/01:00pm 35.0 34.7 16.5 33 12.0 W 13 24 7 13 1010.4 1007.3 0.0
28/12:30pm 35.4 34.4 16.7 33 12.1 WNW 17 30 9 16 1011.1 1007.9 0.0
28/12:00pm 34.5 34.7 16.8 34 11.5 WNW 11 20 6 11 1011.4 1008.2 0.0
28/11:30am 34.9 35.1 16.8 34 11.7 WNW 11 24 6 13 1011.9 1008.7 0.0
28/11:00am 34.8 34.5 16.5 33 11.8 NW 13 30 7 16 1012.3 1009.2 0.0
28/10:30am 33.4 34.0 16.9 37 10.7 NW 9 24 5 13 1012.5 1009.4 0.0
28/10:00am 32.1 33.0 18.3 44 9.1 WNW 11 20 6 11 1012.9 1009.8 0.0
28/09:30am 31.3 32.4 18.1 45 8.6 W 9 17 5 9 1013.4 1010.2 0.0
28/09:00am 29.7 31.5 18.8 52 7.2 W 7 13 4 7 1013.8 1010.6 1.2
28/08:30am 28.0 30.0 18.7 57 6.1 WSW 6 13 3 7 1013.9 1010.7 1.2
28/08:00am 26.7 28.4 18.0 59 5.6 WSW 6 11 3 6 1013.7 1010.5 1.2
28/07:30am 25.5 27.3 18.4 65 4.6 SSW 6 9 3 5 1013.7 1010.5 1.2
28/07:00am 24.6 25.8 17.4 64 4.6 SW 7 11 4 6 1013.6 1010.4 1.2
28/06:44am 24.2 25.6 17.3 65 4.4 SW 6 9 3 5 1013.5 1010.3 1.2
28/06:30am 24.0 25.9 17.6 67 4.1 SW 4 6 2 3 1013.4 1010.2 1.2
28/06:25am 23.9 26.3 18.0 69 3.8 W 2 4 1 2 1013.3 1010.1 1.2
28/06:00am 22.4 25.2 19.6 84 1.8 WSW 4 6 2 3 1013.0 1009.9 1.2
28/05:30am 21.1 23.8 19.4 90 1.1 WNW 4 4 2 2 1012.8 1009.7 1.2
28/05:00am 20.7 22.8 19.0 90 1.1 WSW 6 7 3 4 1012.6 1009.5 1.2
28/04:30am 21.6 24.0 18.7 83 1.9 N 4 6 2 3 1012.4 1009.3 1.2
28/04:00am 21.4 23.5 18.9 86 1.6 NNW 6 7 3 4 1012.0 1008.8 1.2
28/03:30am 21.5 23.3 18.4 82 2.0 N 6 7 3 4 1011.9 1008.7 1.2
28/03:00am 21.3 23.6 18.6 84 1.7 NNE 4 6 2 3 1011.9 1008.7 1.2
28/02:30am 21.0 23.2 18.4 85 1.7 ESE 4 6 2 3 1012.0 1008.8 1.2
28/02:00am 20.9 22.6 18.4 85 1.6 S 7 11 4 6 1012.2 1009.1 1.2
28/01:30am 21.5 22.6 17.9 80 2.3 SSW 9 15 5 8 1012.8 1009.7 1.2
28/01:00am 21.8 24.0 18.4 81 2.2 S 4 6 2 3 1013.1 1010.0 1.2
28/12:30am 22.1 23.9 17.5 75 2.9 NE 4 7 2 4 1013.0 1009.9 1.2
28/12:00am 22.3 23.1 17.3 73 3.1 ESE 9 13 5 7 1012.9 1009.8 1.2
 
Date/Time
WST
Temp
°C
App
Temp
°C
Dew
Point
Rel
Hum
%
Delta-T
°C
Wind Press
QNH
hPa
Press
MSL
hPa
Rain
since 9 am
mm
Dir
 
Spd
km/h
Gust
km/h
Spd
kts
Gust
kts
27/11:30pm 22.1 20.9 17.4 74 3.0 SSE 20 28 11 15 1014.1 1010.9 1.2
27/11:00pm 22.4 21.6 18.1 76 2.7 SW 19 26 10 14 1015.5 1012.4 1.2
27/10:30pm 21.3 20.2 18.6 84 1.7 S 22 33 12 18 1014.4 1011.3 1.2
27/10:00pm 21.0 18.0 19.1 89 1.2 SW 33 52 18 28 1015.8 1012.6 1.0
27/09:30pm 21.8 20.1 19.9 89 1.2 WSW 28 50 15 27 1016.0 1012.8 0.2
27/09:24pm 23.2 21.1 18.9 77 2.8 WSW 28 50 15 27 1015.5 1012.4 0.0
27/09:16pm 24.7 22.5 18.6 69 3.9 W 28 43 15 23 1015.5 1012.4 0.0
27/09:00pm 25.0 25.1 17.4 62 4.8 SW 13 24 7 13 1013.8 1010.6 0.0
27/08:30pm 26.2 25.0 16.1 53 6.3 SSW 17 28 9 15 1013.5 1010.3 0.0
27/08:01pm 26.2 23.0 16.3 54 6.2 SSW 28 46 15 25 1013.0 1009.9 0.0
27/08:00pm 26.2 22.6 16.2 54 6.3 SSW 30 46 16 25 1013.0 1009.9 0.0
27/07:53pm 26.6 23.3 16.0 52 6.6 SW 28 46 15 25 1012.8 1009.7 0.0
27/07:30pm 28.1 24.8 14.9 44 8.1 SSW 26 39 14 21 1012.5 1009.4 0.0
27/07:00pm 29.6 27.2 15.4 42 8.9 SSW 22 33 12 18 1011.5 1008.3 0.0
27/06:30pm 33.4 33.5 15.5 34 11.4 NNE 9 13 5 7 1010.0 1006.8 0.0
27/06:00pm 34.1 33.7 15.1 32 12.0 NNW 11 15 6 8 1009.7 1006.5 0.0
27/05:30pm 34.8 32.9 14.2 29 12.9 WNW 17 22 9 12 1009.5 1006.3 0.0
27/05:00pm 35.1 33.9 15.1 30 12.7 N 15 24 8 13 1009.3 1006.1 0.0
27/04:30pm 34.6 33.0 15.1 31 12.3 N 17 26 9 14 1009.4 1006.2 0.0
27/04:00pm 34.7 34.2 15.0 30 12.5 N 11 24 6 13 1009.4 1006.2 0.0
27/03:30pm 34.7 34.5 14.8 30 12.6 NW 9 13 5 7 1009.8 1006.6 0.0
27/03:00pm 34.2 34.6 15.4 32 12.0 NNE 7 17 4 9 1010.3 1007.2 0.0
27/02:30pm 34.3 33.5 15.0 31 12.2 NW 13 24 7 13 1010.7 1007.6 0.0
27/02:00pm 33.5 32.8 15.5 34 11.4 NNW 13 24 7 13 1011.2 1008.0 0.0
27/01:30pm 33.1 31.6 15.3 34 11.2 N 17 26 9 14 1011.6 1008.4 0.0
27/01:00pm 32.0 31.4 15.7 37 10.3 NNE 13 26 7 14 1012.0 1008.8 0.0
27/12:30pm 31.6 29.8 16.1 39 9.9 NNE 20 41 11 22 1012.3 1009.2 0.0
27/12:00pm 30.8 29.2 16.4 42 9.2 NNE 20 32 11 17 1012.5 1009.4 0.0
27/11:30am 30.2 27.7 17.0 45 8.5 NE 26 35 14 19 1012.8 1009.7 0.0
27/11:00am 29.0 26.0 16.7 47 7.8 NNE 28 37 15 20 1013.3 1010.1 0.0
27/10:30am 29.0 25.9 16.5 46 7.9 NNE 28 37 15 20 1013.6 1010.4 0.0
27/10:00am 28.2 25.1 17.5 52 6.9 NE 30 41 16 22 1013.9 1010.7 0.0
27/09:30am 27.0 26.1 18.2 58 5.7 NE 20 32 11 17 1014.2 1011.0 0.0
27/09:00am 25.4 26.2 18.2 64 4.6 NE 11 19 6 10 1014.6 1011.5 6.6
27/08:30am 23.2 24.8 17.8 71 3.4 E 6 11 3 6 1014.7 1011.6 6.6
27/08:00am 22.4 23.8 17.9 75 2.9 NNE 7 11 4 6 1014.5 1011.4 6.6
27/07:30am 21.7 22.2 18.4 81 2.1 SE 13 17 7 9 1014.1 1010.9 6.4
27/07:00am 20.7 17.1 18.5 87 1.4 NE 35 44 19 24 1014.1 1010.9 6.4
27/06:57am 20.6 16.6 18.5 88 1.3 NE 37 44 20 24 1014.1 1010.9 6.4
27/06:54am 20.6 16.2 18.5 88 1.3 NE 39 44 21 24 1013.9 1010.7 6.4
27/06:39am 20.1 17.9 18.6 91 1.0 ENE 28 35 15 19 1014.0 1010.8 6.0
27/06:30am 20.6 22.3 18.5 88 1.3 E 7 17 4 9 1015.4 1012.3 4.8
27/06:29am 20.8 22.7 18.6 87 1.4 E 6 13 3 7 1015.5 1012.4 4.6
27/06:20am 21.1 19.6 18.5 85 1.7 WNW 24 28 13 15 1016.0 1012.8 3.6
27/06:00am 21.7 20.1 17.5 77 2.6 E 22 33 12 18 1013.9 1010.7 3.4
27/05:30am 21.0 20.0 17.9 82 2.0 E 20 32 11 17 1013.6 1010.4 3.4
27/05:00am 20.8 19.9 18.3 85 1.6 E 20 32 11 17 1013.3 1010.1 3.4
27/04:30am 20.9 20.7 18.6 87 1.5 ESE 17 26 9 14 1013.4 1010.2 3.4
27/04:00am 20.9 19.5 18.7 87 1.4 ESE 24 37 13 20 1014.1 1010.9 3.4
27/03:30am 20.7 19.5 18.5 87 1.4 S 22 30 12 16 1014.6 1011.5 3.4
27/03:15am 20.7 18.2 18.1 85 1.6 ESE 28 48 15 26 1012.9 1009.8 3.4
27/03:00am 20.4 18.4 18.3 88 1.3 ESE 26 39 14 21 1013.1 1010.0 3.4
27/02:30am 20.2 18.6 18.3 89 1.2 SE 24 37 13 20 1013.0 1009.9 3.4
27/02:00am 19.9 19.2 18.6 92 0.8 SSE 20 28 11 15 1013.7 1010.5 3.4
27/01:30am 20.9 19.6 18.2 84 1.7 SSE 22 33 12 18 1013.8 1010.6 3.4
27/01:00am 21.3 20.2 18.7 85 1.7 SE 22 35 12 19 1013.0 1009.9 3.4
27/12:30am 21.4 20.1 19.1 87 1.5 SE 24 32 13 17 1012.9 1009.8 3.4
27/12:00am 21.4 20.8 18.9 86 1.6 SE 20 28 11 15 1013.7 1010.5 3.4
 
Date/Time
WST
Temp
°C
App
Temp
°C
Dew
Point
Rel
Hum
%
Delta-T
°C
Wind Press
QNH
hPa
Press
MSL
hPa
Rain
since 9 am
mm
Dir
 
Spd
km/h
Gust
km/h
Spd
kts
Gust
kts
26/11:30pm 21.8 22.3 19.3 86 1.6 SSE 15 28 8 15 1014.0 1010.8 2.8
26/11:00pm 22.1 21.4 19.4 85 1.7 ESE 22 32 12 17 1013.7 1010.5 2.4
26/10:30pm 21.9 23.0 19.6 87 1.5 S 13 20 7 11 1013.8 1010.6 2.4
26/10:00pm 22.0 22.1 19.9 88 1.4 SSE 19 28 10 15 1013.8 1010.6 2.2
26/09:30pm 23.1 23.5 18.9 77 2.7 SSW 15 24 8 13 1013.8 1010.6 0.6
26/09:00pm 24.0 26.2 19.1 74 3.2 SSW 6 11 3 6 1013.3 1010.1 0.6
26/08:30pm 23.4 21.3 18.9 76 2.9 WSW 28 39 15 21 1012.0 1008.8 0.4
26/08:15pm 28.1 24.7 15.9 47 7.6 W 28 50 15 27 1012.0 1008.8 0.0
26/08:14pm 28.1 25.1 15.9 47 7.6 W 26 35 14 19 1011.8 1008.6 0.0
26/08:00pm 28.2 25.1 15.5 46 7.9 S 26 44 14 24 1009.7 1006.5 0.0
26/07:48pm 31.1 27.2 14.3 36 10.4 S 28 41 15 22 1009.4 1006.2 0.0
26/07:30pm 34.0 33.0 13.4 28 12.7 NE 11 15 6 8 1008.6 1005.4 0.0
26/07:00pm 34.5 33.3 12.7 26 13.4 NNE 11 17 6 9 1008.5 1005.3 0.0
26/06:30pm 35.0 34.0 12.3 25 13.8 NNE 9 15 5 8 1008.3 1005.2 0.0
26/06:00pm 35.6 33.3 11.7 23 14.5 NNE 15 22 8 12 1008.1 1005.0 0.0

Other Formats:

Comma delimited format used in spreadsheet applications
http://www.bom.gov.au/fwo/IDW60801/IDW60801.99737.axf

JavaScript Object Notation format (JSON) in row-major order
http://www.bom.gov.au/fwo/IDW60801/IDW60801.99737.json